This is the latest recevied weather packets stored in our database for station/object APPOWX. If no packets are shown the sender has not sent any weather packets the latest 1 day(s).
| Time | Temp. | Humidity | Pressure | Rain* | Wind** | Luminosity | Snow |
|---|---|---|---|---|---|---|---|
| 1777995759 | 23.33° C | 47% | 1017.3 hPa | 0 mm | 0 m/s | - | - |
| 1777995699 | 23.33° C | 46% | 1017.7 hPa | 0 mm | 0 m/s | - | - |
| 1777995639 | 23.33° C | 44% | 1017.6 hPa | 0 mm | 0 m/s | - | - |
| 1777995579 | 23.33° C | 47% | 1017.6 hPa | 0 mm | 0 m/s | - | - |
| 1777995519 | 23.33° C | 45% | 1017.6 hPa | 0 mm | 0.45 m/s, 56° | - | - |
| 1777995459 | 23.33° C | 46% | 1017.5 hPa | 0 mm | 0.45 m/s, 54° | - | - |
| 1777995399 | 23.33° C | 48% | 1017.5 hPa | 0 mm | 0.89 m/s, 16° | - | - |
| 1777995338 | 23.33° C | 47% | 1017.6 hPa | 0 mm | 0.45 m/s, 48° | - | - |
| 1777995278 | 23.33° C | 45% | 1017.4 hPa | 0 mm | 0.45 m/s, 66° | - | - |
| 1777995219 | 23.33° C | 45% | 1017.5 hPa | 0 mm | 0 m/s | - | - |
| 1777995158 | 23.33° C | 49% | 1017.6 hPa | 0 mm | 0 m/s | - | - |
| 1777995098 | 23.33° C | 47% | 1017.5 hPa | 0 mm | 0.89 m/s, 57° | - | - |
| 1777995038 | 23.33° C | 46% | 1017.3 hPa | 0 mm | 0.45 m/s, 66° | - | - |
| 1777994979 | 23.89° C | 46% | 1017.6 hPa | 0 mm | 1.34 m/s, 63° | - | - |
| 1777994919 | 23.89° C | 45% | 1017.6 hPa | 0 mm | 1.79 m/s, 58° | - | - |
| 1777994859 | 23.89° C | 48% | 1017.5 hPa | 0 mm | 0.45 m/s, 44° | - | - |
| 1777994799 | 23.89° C | 45% | 1017.6 hPa | 0 mm | 0 m/s | - | - |
| 1777994738 | 23.89° C | 46% | 1017.6 hPa | 0 mm | 0.45 m/s, 70° | - | - |
| 1777994678 | 23.89° C | 47% | 1017.4 hPa | 0 mm | 0.45 m/s, 70° | - | - |
| 1777994618 | 23.89° C | 44% | 1017.4 hPa | 0 mm | 0.45 m/s, 54° | - | - |
| 1777994558 | 23.89° C | 51% | 1017.6 hPa | 0 mm | 0 m/s | - | - |
| 1777994498 | 23.89° C | 50% | 1017.6 hPa | 0 mm | 0 m/s | - | - |
| 1777994437 | 23.89° C | 47% | 1017.6 hPa | 0 mm | 0.89 m/s, 88° | - | - |
| 1777994378 | 23.89° C | 48% | 1017.5 hPa | 0 mm | 0.45 m/s, 66° | - | - |
| 1777994318 | 23.33° C | 46% | 1017.5 hPa | 0 mm | 0.89 m/s, 85° | - | - |
* Rain latest hour (hover to see other rain measurements)
** Current wind speed in m/s (hover to see current wind gust speed)